Time,TemperatureF,DewpointF,PressureIn,WindDirection,WindDirectionDegrees,WindSpeedMPH,WindSpeedGustMPH,Humidity,HourlyPrecipIn,Conditions,Clouds,dailyrainin,SoftwareType,DateUTC
2013-05-29 00:02:00,59.0,58.0,29.63,SSE,155,12.0,-999.0,97,-99.99,,,-99.99,,2013-05-29 05:02:00,
2013-05-29 00:12:00,59.0,58.0,29.64,SSE,153,12.0,-999.0,98,-99.99,,,-99.99,,2013-05-29 05:12:00,
2013-05-29 00:22:00,58.0,-99.9,29.64,SSE,153,15.0,-999.0,-999,-99.99,,,-99.99,,2013-05-29 05:22:00,
2013-05-29 00:33:00,59.0,-99.9,29.64,SSE,161,18.0,-999.0,-999,-99.99,,,-99.99,,2013-05-29 05:33:00,
2013-05-29 00:42:00,58.0,-99.9,29.65,SSE,156,14.0,-999.0,-999,-99.99,,,-99.99,,2013-05-29 05:42:00,
2013-05-29 00:52:00,58.0,-99.9,29.66,South,171,17.0,-999.0,-999,-99.99,,,-99.99,,2013-05-29 05:52:00,
2013-05-29 01:02:00,59.0,-99.9,29.65,SSE,164,19.0,-999.0,-999,-99.99,,,-99.99,,2013-05-29 06:02:00,
2013-05-29 01:12:00,59.0,-99.9,29.65,SSE,157,17.0,-999.0,-999,-99.99,,,-99.99,,2013-05-29 06:12:00,
2013-05-29 01:22:00,58.0,-99.9,29.66,SSE,161,17.0,-999.0,-999,-99.99,,,-99.99,,2013-05-29 06:22:00,
2013-05-29 01:32:00,58.0,-99.9,29.66,SSE,161,17.0,-999.0,-999,-99.99,,,-99.99,,2013-05-29 06:32:00,
2013-05-29 01:42:00,58.0,-99.9,29.65,SSE,153,15.0,-999.0,-999,-99.99,,,-99.99,,2013-05-29 06:42:00,
2013-05-29 01:52:00,58.0,-99.9,29.65,SSE,157,17.0,-999.0,-999,-99.99,,,-99.99,,2013-05-29 06:52:00,
2013-05-29 02:01:00,58.0,-99.9,29.66,SSE,151,18.0,-999.0,-999,-99.99,,,-99.99,,2013-05-29 07:01:00,
2013-05-29 02:12:00,57.0,-99.9,29.66,SSE,161,14.0,-999.0,-999,-99.99,,,-99.99,,2013-05-29 07:12:00,
2013-05-29 02:22:00,57.0,-99.9,29.66,SSE,156,14.0,-999.0,-999,-99.99,,,-99.99,,2013-05-29 07:22:00,
2013-05-29 02:35:00,57.0,-99.9,29.66,South,169,12.0,-999.0,-999,-99.99,,,-99.99,,2013-05-29 07:35:00,
2013-05-29 02:42:00,56.0,-99.9,29.66,SSE,165,7.0,-999.0,-999,-99.99,,,-99.99,,2013-05-29 07:42:00,
2013-05-29 02:53:00,56.0,-99.9,29.66,SSE,165,7.0,-999.0,-999,-99.99,,,-99.99,,2013-05-29 07:53:00,
2013-05-29 03:02:00,56.0,-99.9,29.66,SSE,166,10.0,-999.0,-999,-99.99,,,-99.99,,2013-05-29 08:02:00,
2013-05-29 03:11:00,55.0,-99.9,29.66,SSE,157,9.0,-999.0,-999,-99.99,,,-99.99,,2013-05-29 08:11:00,
2013-05-29 03:22:00,55.0,-99.9,29.66,SSE,151,9.0,-999.0,-999,-99.99,,,-99.99,,2013-05-29 08:22:00,
2013-05-29 03:32:00,55.0,-99.9,29.65,SSE,154,14.0,-999.0,-999,-99.99,,,-99.99,,2013-05-29 08:32:00,
2013-05-29 03:42:00,55.0,-99.9,29.65,South,172,9.0,-999.0,-999,-99.99,,,-99.99,,2013-05-29 08:42:00,
2013-05-29 03:52:00,55.0,-99.9,29.64,SSE,160,9.0,-999.0,-999,-99.99,,,-99.99,,2013-05-29 08:52:00,
2013-05-29 04:02:00,54.0,-99.9,29.64,SSE,168,10.0,-999.0,-999,-99.99,,,-99.99,,2013-05-29 09:02:00,
2013-05-29 04:11:00,54.0,-99.9,29.64,SSE,160,8.0,-999.0,-999,-99.99,,,-99.99,,2013-05-29 09:11:00,
2013-05-29 04:22:00,54.0,-99.9,29.64,SSE,165,10.0,-999.0,-999,-99.99,,,-99.99,,2013-05-29 09:22:00,
2013-05-29 04:33:00,54.0,-99.9,29.64,SSE,154,8.0,-999.0,-999,-99.99,,,-99.99,,2013-05-29 09:33:00,
2013-05-29 04:42:00,54.0,-99.9,29.64,SSE,167,11.0,-999.0,-999,-99.99,,,-99.99,,2013-05-29 09:42:00,
2013-05-29 04:53:00,54.0,-99.9,29.64,SSE,167,11.0,-999.0,-999,-99.99,,,-99.99,,2013-05-29 09:53:00,
2013-05-29 05:03:00,54.0,-99.9,29.65,South,174,10.0,-999.0,-999,-99.99,,,-99.99,,2013-05-29 10:03:00,
2013-05-29 05:12:00,54.0,-99.9,29.65,SSE,163,9.0,-999.0,-999,-99.99,,,-99.99,,2013-05-29 10:12:00,
2013-05-29 05:22:00,54.0,-99.9,29.65,SE,134,4.0,-999.0,-999,-99.99,,,-99.99,,2013-05-29 10:22:00,
2013-05-29 05:33:00,53.0,-99.9,29.65,SE,140,8.0,-999.0,-999,-99.99,,,-99.99,,2013-05-29 10:33:00,
2013-05-29 05:42:00,53.0,-99.9,29.65,SSE,154,12.0,-999.0,-999,-99.99,,,-99.99,,2013-05-29 10:42:00,
2013-05-29 05:53:00,53.0,-99.9,29.65,SSE,147,15.0,-999.0,-999,-99.99,,,-99.99,,2013-05-29 10:53:00,
2013-05-29 06:02:00,54.0,-99.9,29.65,SSE,159,9.0,-999.0,-999,-99.99,,,-99.99,,2013-05-29 11:02:00,
2013-05-29 06:12:00,54.0,-99.9,29.65,SSE,154,11.0,-999.0,-999,-99.99,,,-99.99,,2013-05-29 11:12:00,
2013-05-29 06:22:00,54.0,-99.9,29.66,SE,145,9.0,-999.0,-999,-99.99,,,-99.99,,2013-05-29 11:22:00,
2013-05-29 06:32:00,54.0,-99.9,29.64,SSE,161,11.0,-999.0,-999,-99.99,,,-99.99,,2013-05-29 11:32:00,
2013-05-29 06:42:00,54.0,-99.9,29.64,SE,137,8.0,-999.0,-999,-99.99,,,-99.99,,2013-05-29 11:42:00,
2013-05-29 06:52:00,54.0,-99.9,29.62,ESE,113,8.0,-999.0,-999,-99.99,,,-99.99,,2013-05-29 11:52:00,
2013-05-29 07:01:00,54.0,-99.9,29.61,East,80,9.0,-999.0,-999,-99.99,,,-99.99,,2013-05-29 12:01:00,
2013-05-29 07:11:00,54.0,-99.9,29.61,East,79,10.0,-999.0,-999,-99.99,,,-99.99,,2013-05-29 12:11:00,
2013-05-29 07:22:00,55.0,-99.9,29.62,ESE,114,5.0,-999.0,-999,-99.99,,,-99.99,,2013-05-29 12:22:00,
2013-05-29 07:32:00,55.0,-99.9,29.64,SSE,147,11.0,-999.0,-999,-99.99,,,-99.99,,2013-05-29 12:32:00,
2013-05-29 07:42:00,56.0,-99.9,29.64,SSE,155,15.0,-999.0,-999,-99.99,,,-99.99,,2013-05-29 12:42:00,
2013-05-29 07:52:00,56.0,-99.9,29.65,SSE,158,21.0,-999.0,-999,-99.99,,,-99.99,,2013-05-29 12:52:00,
2013-05-29 08:02:00,57.0,-99.9,29.66,South,174,15.0,-999.0,-999,-99.99,,,-99.99,,2013-05-29 13:02:00,
2013-05-29 08:11:00,57.0,-99.9,29.66,SSE,166,16.0,-999.0,-999,-99.99,,,-99.99,,2013-05-29 13:11:00,
2013-05-29 08:22:00,57.0,-99.9,29.66,South,175,14.0,-999.0,-999,-99.99,,,-99.99,,2013-05-29 13:22:00,
2013-05-29 08:32:00,58.0,-99.9,29.67,South,176,14.0,-999.0,-999,-99.99,,,-99.99,,2013-05-29 13:32:00,
2013-05-29 08:42:00,58.0,-99.9,29.67,South,169,16.0,-999.0,-999,-99.99,,,-99.99,,2013-05-29 13:42:00,
2013-05-29 08:53:00,58.0,-99.9,29.67,SSE,153,16.0,-999.0,-999,-99.99,,,-99.99,,2013-05-29 13:53:00,
2013-05-29 09:02:00,58.0,-99.9,29.66,SSE,157,18.0,-999.0,-999,-99.99,,,-99.99,,2013-05-29 14:02:00,
2013-05-29 09:11:00,58.0,-99.9,29.67,South,179,15.0,-999.0,-999,-99.99,,,-99.99,,2013-05-29 14:11:00,
2013-05-29 09:22:00,58.0,-99.9,29.68,South,172,15.0,-999.0,-999,-99.99,,,-99.99,,2013-05-29 14:22:00,
2013-05-29 09:32:00,58.0,-99.9,29.68,SSE,166,19.0,-999.0,-999,-99.99,,,-99.99,,2013-05-29 14:32:00,
2013-05-29 09:42:00,58.0,-99.9,29.68,SSE,161,16.0,-999.0,-999,-99.99,,,-99.99,,2013-05-29 14:42:00,
2013-05-29 09:52:00,58.0,-99.9,29.68,SSE,166,17.0,-999.0,-999,-99.99,,,-99.99,,2013-05-29 14:52:00,
2013-05-29 10:01:00,58.0,-99.9,29.67,SSE,152,18.0,-999.0,-999,-99.99,,,-99.99,,2013-05-29 15:01:00,
2013-05-29 10:11:00,58.0,-99.9,29.66,SE,142,16.0,-999.0,-999,-99.99,,,-99.99,,2013-05-29 15:11:00,
2013-05-29 10:22:00,58.0,-99.9,29.64,SE,126,12.0,-999.0,-999,-99.99,,,-99.99,,2013-05-29 15:22:00,
2013-05-29 10:33:00,58.0,-99.9,29.60,East,82,15.0,-999.0,-999,-99.99,,,-99.99,,2013-05-29 15:33:00,
2013-05-29 10:43:00,58.0,-99.9,29.48,NE,55,37.0,-999.0,-999,-99.99,,,-99.99,,2013-05-29 15:43:00,
2013-05-29 10:53:00,59.0,-99.9,29.52,East,86,19.0,-999.0,-999,-99.99,,,-99.99,,2013-05-29 15:53:00,
2013-05-29 11:03:00,60.0,-99.9,29.54,East,88,19.0,-999.0,-999,-99.99,,,-99.99,,2013-05-29 16:03:00,
2013-05-29 11:13:00,60.0,-99.9,29.57,SE,128,16.0,-999.0,-999,-99.99,,,-99.99,,2013-05-29 16:13:00,
2013-05-29 11:22:00,61.0,-99.9,29.60,SE,138,10.0,-999.0,-999,-99.99,,,-99.99,,2013-05-29 16:22:00,
2013-05-29 11:33:00,60.0,-99.9,29.60,SE,127,11.0,-999.0,-999,-99.99,,,-99.99,,2013-05-29 16:33:00,
2013-05-29 11:42:00,61.0,-99.9,29.60,ESE,119,6.0,-999.0,-999,-99.99,,,-99.99,,2013-05-29 16:42:00,
2013-05-29 11:52:00,61.0,-99.9,29.59,ESE,107,9.0,-999.0,-999,-99.99,,,-99.99,,2013-05-29 16:52:00,
2013-05-29 12:02:00,60.0,-99.9,29.59,ESE,112,11.0,-999.0,-999,-99.99,,,-99.99,,2013-05-29 17:02:00,
2013-05-29 12:12:00,60.0,-99.9,29.60,East,91,6.0,-999.0,-999,-99.99,,,-99.99,,2013-05-29 17:12:00,
2013-05-29 12:22:00,60.0,-99.9,29.61,ESE,107,5.0,-999.0,-999,-99.99,,,-99.99,,2013-05-29 17:22:00,
2013-05-29 12:33:00,61.0,-99.9,29.62,ESE,120,5.0,-999.0,-999,-99.99,,,-99.99,,2013-05-29 17:33:00,
2013-05-29 12:43:00,61.0,-99.9,29.62,SE,142,3.0,-999.0,-999,-99.99,,,-99.99,,2013-05-29 17:43:00,
2013-05-29 12:52:00,61.0,-99.9,29.62,East,91,3.0,-999.0,-999,-99.99,,,-99.99,,2013-05-29 17:52:00,
2013-05-29 13:02:00,61.0,-99.9,29.63,ENE,73,4.0,-999.0,-999,-99.99,,,-99.99,,2013-05-29 18:02:00,
2013-05-29 13:13:00,62.0,-99.9,29.63,ENE,69,7.0,-999.0,-999,-99.99,,,-99.99,,2013-05-29 18:13:00,
2013-05-29 13:22:00,62.0,61.0,29.63,ESE,107,5.0,-999.0,96,-99.99,,,-99.99,,2013-05-29 18:22:00,
2013-05-29 13:32:00,63.0,62.0,29.63,ENE,70,7.0,-999.0,95,-99.99,,,-99.99,,2013-05-29 18:32:00,
2013-05-29 13:42:00,64.0,61.0,29.64,East,88,7.0,-999.0,90,-99.99,,,-99.99,,2013-05-29 18:42:00,
2013-05-29 13:51:00,66.0,61.0,29.62,ESE,119,8.0,-999.0,83,-99.99,,,-99.99,,2013-05-29 18:51:00,
2013-05-29 14:02:00,67.0,61.0,29.61,SE,128,9.0,-999.0,82,-99.99,,,-99.99,,2013-05-29 19:02:00,
2013-05-29 14:11:00,67.0,61.0,29.61,ESE,105,11.0,-999.0,79,-99.99,,,-99.99,,2013-05-29 19:11:00,
2013-05-29 14:21:00,68.0,60.0,29.61,ESE,110,9.0,-999.0,76,-99.99,,,-99.99,,2013-05-29 19:21:00,
2013-05-29 14:32:00,67.0,58.0,29.61,SE,135,15.0,-999.0,73,-99.99,,,-99.99,,2013-05-29 19:32:00,
2013-05-29 14:44:00,67.0,59.0,29.60,ESE,104,14.0,-999.0,75,-99.99,,,-99.99,,2013-05-29 19:44:00,
2013-05-29 14:52:00,66.0,59.0,29.60,East,82,13.0,-999.0,78,-99.99,,,-99.99,,2013-05-29 19:52:00,
2013-05-29 15:03:00,65.0,61.0,29.60,East,95,10.0,-999.0,86,-99.99,,,-99.99,,2013-05-29 20:03:00,
2013-05-29 15:11:00,64.0,62.0,29.59,East,85,14.0,-999.0,93,-99.99,,,-99.99,,2013-05-29 20:11:00,
2013-05-29 15:23:00,63.0,-99.9,29.59,NE,54,18.0,-999.0,-999,-99.99,,,-99.99,,2013-05-29 20:23:00,
2013-05-29 15:33:00,63.0,-99.9,29.59,NE,53,17.0,-999.0,-999,-99.99,,,-99.99,,2013-05-29 20:33:00,
2013-05-29 15:42:00,63.0,-99.9,29.58,NNE,29,17.0,-999.0,-999,-99.99,,,-99.99,,2013-05-29 20:42:00,
2013-05-29 15:53:00,63.0,-99.9,29.58,NNE,29,17.0,-999.0,-999,-99.99,,,-99.99,,2013-05-29 20:53:00,
2013-05-29 16:02:00,62.0,-99.9,29.58,NNE,32,10.0,-999.0,-999,-99.99,,,-99.99,,2013-05-29 21:02:00,
2013-05-29 16:12:00,62.0,-99.9,29.57,NNE,33,11.0,-999.0,-999,-99.99,,,-99.99,,2013-05-29 21:12:00,
2013-05-29 16:22:00,62.0,-99.9,29.58,North,2,7.0,-999.0,-999,-99.99,,,-99.99,,2013-05-29 21:22:00,
2013-05-29 16:34:00,62.0,-99.9,29.57,North,0,9.0,-999.0,-999,-99.99,,,-99.99,,2013-05-29 21:34:00,
2013-05-29 16:44:00,61.0,-99.9,29.56,North,0,10.0,-999.0,-999,-99.99,,,-99.99,,2013-05-29 21:44:00,
2013-05-29 16:53:00,61.0,-99.9,29.56,North,0,10.0,-999.0,-999,-99.99,,,-99.99,,2013-05-29 21:53:00,
2013-05-29 17:03:00,62.0,-99.9,29.56,NNE,23,13.0,-999.0,-999,-99.99,,,-99.99,,2013-05-29 22:03:00,
2013-05-29 17:13:00,62.0,-99.9,29.56,NNE,33,13.0,-999.0,-999,-99.99,,,-99.99,,2013-05-29 22:13:00,
2013-05-29 17:23:00,62.0,-99.9,29.54,NNE,31,14.0,-999.0,-999,-99.99,,,-99.99,,2013-05-29 22:23:00,
2013-05-29 17:34:00,62.0,-99.9,29.54,NNE,24,16.0,-999.0,-999,-99.99,,,-99.99,,2013-05-29 22:34:00,
2013-05-29 17:43:00,62.0,-99.9,29.54,NE,41,14.0,-999.0,-999,-99.99,,,-99.99,,2013-05-29 22:43:00,
2013-05-29 17:53:00,62.0,-99.9,29.54,NE,48,9.0,-999.0,-999,-99.99,,,-99.99,,2013-05-29 22:53:00,
2013-05-29 18:02:00,62.0,-99.9,29.54,NNE,21,12.0,-999.0,-999,-99.99,,,-99.99,,2013-05-29 23:02:00,
2013-05-29 18:12:00,62.0,-99.9,29.53,NNE,22,15.0,-999.0,-999,-99.99,,,-99.99,,2013-05-29 23:12:00,
2013-05-29 18:22:00,62.0,-99.9,29.52,NNE,33,20.0,-999.0,-999,-99.99,,,-99.99,,2013-05-29 23:22:00,
2013-05-29 18:33:00,62.0,-99.9,29.51,NE,38,17.0,-999.0,-999,-99.99,,,-99.99,,2013-05-29 23:33:00,
2013-05-29 18:43:00,62.0,-99.9,29.51,NE,34,19.0,-999.0,-999,-99.99,,,-99.99,,2013-05-29 23:43:00,
2013-05-29 18:53:00,62.0,-99.9,29.51,NE,42,19.0,-999.0,-999,-99.99,,,-99.99,,2013-05-29 23:53:00,
2013-05-29 19:02:00,62.0,-99.9,29.50,NE,47,18.0,-999.0,-999,-99.99,,,-99.99,,2013-05-30 00:02:00,
2013-05-29 19:12:00,62.0,-99.9,29.50,NE,39,14.0,-999.0,-999,-99.99,,,-99.99,,2013-05-30 00:12:00,
2013-05-29 19:22:00,62.0,-99.9,29.51,NE,43,13.0,-999.0,-999,-99.99,,,-99.99,,2013-05-30 00:22:00,
2013-05-29 19:32:00,62.0,-99.9,29.51,NE,43,13.0,-999.0,-999,-99.99,,,-99.99,,2013-05-30 00:32:00,
2013-05-29 19:42:00,62.0,-99.9,29.51,NE,44,10.0,-999.0,-999,-99.99,,,-99.99,,2013-05-30 00:42:00,
2013-05-29 19:52:00,63.0,-99.9,29.52,ENE,57,12.0,-999.0,-999,-99.99,,,-99.99,,2013-05-30 00:52:00,
2013-05-29 20:02:00,63.0,-99.9,29.51,ENE,61,9.0,-999.0,-999,-99.99,,,-99.99,,2013-05-30 01:02:00,
2013-05-29 20:11:00,63.0,-99.9,29.51,ENE,60,12.0,-999.0,-999,-99.99,,,-99.99,,2013-05-30 01:11:00,
2013-05-29 20:22:00,63.0,-99.9,29.48,ENE,72,21.0,-999.0,-999,-99.99,,,-99.99,,2013-05-30 01:22:00,
2013-05-29 20:32:00,64.0,-99.9,29.48,ENE,77,20.0,-999.0,-999,-99.99,,,-99.99,,2013-05-30 01:32:00,
2013-05-29 20:42:00,63.0,-99.9,29.49,ENE,60,15.0,-999.0,-999,-99.99,,,-99.99,,2013-05-30 01:42:00,
2013-05-29 20:52:00,63.0,-99.9,29.49,ENE,58,20.0,-999.0,-999,-99.99,,,-99.99,,2013-05-30 01:52:00,
2013-05-29 21:02:00,63.0,-99.9,29.49,NE,56,15.0,-999.0,-999,-99.99,,,-99.99,,2013-05-30 02:02:00,
2013-05-29 21:11:00,63.0,-99.9,29.49,NE,42,13.0,-999.0,-999,-99.99,,,-99.99,,2013-05-30 02:11:00,
2013-05-29 21:22:00,63.0,-99.9,29.50,NE,50,16.0,-999.0,-999,-99.99,,,-99.99,,2013-05-30 02:22:00,
2013-05-29 21:32:00,63.0,-99.9,29.50,NE,42,13.0,-999.0,-999,-99.99,,,-99.99,,2013-05-30 02:32:00,
2013-05-29 21:42:00,63.0,-99.9,29.50,NE,42,13.0,-999.0,-999,-99.99,,,-99.99,,2013-05-30 02:42:00,
2013-05-29 21:52:00,63.0,-99.9,29.50,NE,42,13.0,-999.0,-999,-99.99,,,-99.99,,2013-05-30 02:52:00,
2013-05-29 22:02:00,63.0,-99.9,29.51,ENE,78,9.0,-999.0,-999,-99.99,,,-99.99,,2013-05-30 03:02:00,
2013-05-29 22:12:00,63.0,-99.9,29.50,ENE,73,17.0,-999.0,-999,-99.99,,,-99.99,,2013-05-30 03:12:00,
2013-05-29 22:22:00,62.0,-99.9,29.50,East,84,20.0,-999.0,-999,-99.99,,,-99.99,,2013-05-30 03:22:00,
2013-05-29 22:33:00,62.0,-99.9,29.50,ESE,115,10.0,-999.0,-999,-99.99,,,-99.99,,2013-05-30 03:33:00,
2013-05-29 22:43:00,63.0,-99.9,29.51,NNE,31,-999.0,-999.0,-999,-99.99,,,-99.99,,2013-05-30 03:43:00,
2013-05-29 22:53:00,63.0,-99.9,29.51,NNE,31,-999.0,-999.0,-999,-99.99,,,-99.99,,2013-05-30 03:53:00,
2013-05-29 23:03:00,64.0,-99.9,29.50,SSE,150,29.0,-999.0,-999,-99.99,,,-99.99,,2013-05-30 04:03:00,
2013-05-29 23:13:00,62.0,-99.9,29.51,SE,129,11.0,-999.0,-999,-99.99,,,-99.99,,2013-05-30 04:13:00,
2013-05-29 23:23:00,63.0,62.0,29.49,ESE,106,11.0,-999.0,95,-99.99,,,-99.99,,2013-05-30 04:23:00,
2013-05-29 23:33:00,62.0,-99.9,29.50,East,85,19.0,-999.0,-999,-99.99,,,-99.99,,2013-05-30 04:33:00,
2013-05-29 23:42:00,62.0,-99.9,29.50,East,85,19.0,-999.0,-999,-99.99,,,-99.99,,2013-05-30 04:42:00,
2013-05-29 23:53:00,62.0,-99.9,29.49,NE,41,14.0,-999.0,-999,-99.99,,,-99.99,,2013-05-30 04:53:00,